createdAt,value
2022-12-31T00:01:01.087Z,9.51
2022-12-31T00:03:34.926Z,9.41
2022-12-31T00:06:18.226Z,9.43
2022-12-31T00:08:51.432Z,9.41
2022-12-31T00:11:24.896Z,9.41
2022-12-31T00:13:57.875Z,9.44
2022-12-31T00:16:32.523Z,9.35
2022-12-31T00:19:03.564Z,9.50
2022-12-31T00:21:37.044Z,9.49
2022-12-31T00:24:12.289Z,9.54
2022-12-31T00:26:47.487Z,9.59
2022-12-31T00:29:20.229Z,9.58
2022-12-31T00:31:52.768Z,9.54
2022-12-31T00:34:25.248Z,9.55
2022-12-31T00:36:57.810Z,9.66
2022-12-31T00:39:30.558Z,9.73
2022-12-31T00:42:03.145Z,9.75
2022-12-31T00:44:35.851Z,9.76
2022-12-31T00:47:08.335Z,9.68
2022-12-31T00:49:42.258Z,9.82
2022-12-31T00:52:15.961Z,9.91
2022-12-31T00:54:48.542Z,9.90
2022-12-31T00:57:21.022Z,9.81
2022-12-31T00:59:53.313Z,9.92
2022-12-31T01:02:25.814Z,9.86
2022-12-31T01:04:58.470Z,9.88
2022-12-31T01:07:30.838Z,9.85
2022-12-31T01:10:03.690Z,9.97
2022-12-31T01:12:38.219Z,9.95
2022-12-31T01:15:12.017Z,9.97
2022-12-31T01:17:44.324Z,10.01
2022-12-31T01:20:16.706Z,10.05
2022-12-31T01:22:49.173Z,10.13
2022-12-31T01:25:21.743Z,10.22
2022-12-31T01:27:54.804Z,10.23
2022-12-31T01:30:27.483Z,10.29
2022-12-31T01:33:00.137Z,10.19
2022-12-31T01:35:35.015Z,10.17
2022-12-31T01:38:07.650Z,10.24
2022-12-31T01:40:42.041Z,10.31
2022-12-31T01:43:19.157Z,10.27
2022-12-31T01:45:55.828Z,10.16
2022-12-31T01:48:29.331Z,10.20
2022-12-31T01:51:02.365Z,10.20
2022-12-31T01:53:37.294Z,10.28
2022-12-31T01:56:13.288Z,10.30
2022-12-31T01:58:48.881Z,10.32
2022-12-31T02:01:27.004Z,10.20
2022-12-31T02:04:02.030Z,10.15
2022-12-31T02:06:36.596Z,10.14
2022-12-31T02:09:10.341Z,10.11
2022-12-31T02:11:43.271Z,10.17
2022-12-31T02:14:18.639Z,10.17
2022-12-31T02:16:58.814Z,10.15
2022-12-31T02:20:15.170Z,9.91
2022-12-31T02:22:53.964Z,10.09
2022-12-31T02:25:31.132Z,10.10
2022-12-31T02:28:14.897Z,10.20
2022-12-31T02:30:49.279Z,10.17
2022-12-31T02:33:24.019Z,10.23
2022-12-31T02:35:56.597Z,10.22
2022-12-31T02:38:30.172Z,10.18
2022-12-31T02:41:01.705Z,10.22
2022-12-31T02:43:35.145Z,10.16
2022-12-31T02:46:09.794Z,10.30
2022-12-31T02:48:45.639Z,10.24
2022-12-31T02:51:31.221Z,10.26
2022-12-31T02:54:09.035Z,10.26
2022-12-31T02:56:43.961Z,10.11
2022-12-31T02:59:33.497Z,10.26
2022-12-31T03:02:16.388Z,10.25
2022-12-31T03:04:50.395Z,10.20
2022-12-31T03:07:23.266Z,10.28
2022-12-31T03:09:54.465Z,10.17
2022-12-31T03:12:44.534Z,10.08
2022-12-31T03:15:22.651Z,10.23
2022-12-31T03:17:58.791Z,10.46
2022-12-31T03:20:48.593Z,10.34
2022-12-31T03:23:21.769Z,10.33
2022-12-31T03:25:53.492Z,10.41
2022-12-31T03:28:26.078Z,10.47
2022-12-31T03:30:58.357Z,10.51
2022-12-31T03:33:31.415Z,10.48
2022-12-31T03:36:05.240Z,10.46
2022-12-31T03:38:35.965Z,10.50
2022-12-31T03:41:08.471Z,10.50
2022-12-31T03:43:40.034Z,10.57
2022-12-31T03:46:13.062Z,10.63
2022-12-31T03:48:45.286Z,10.66
2022-12-31T03:51:16.940Z,10.56
2022-12-31T03:53:47.892Z,10.63
2022-12-31T03:56:21.345Z,10.67
2022-12-31T03:58:52.613Z,10.63
2022-12-31T04:01:26.735Z,10.48
2022-12-31T04:03:57.684Z,10.56
2022-12-31T04:06:28.438Z,10.67
2022-12-31T04:08:59.278Z,10.61
2022-12-31T04:11:30.035Z,10.52
2022-12-31T04:14:00.952Z,10.64
2022-12-31T04:16:32.396Z,10.60
2022-12-31T04:19:03.734Z,10.62
2022-12-31T04:21:35.446Z,10.56
2022-12-31T04:24:07.157Z,10.58
2022-12-31T04:26:40.508Z,10.49
2022-12-31T04:29:12.350Z,10.53
2022-12-31T04:31:43.264Z,10.59
2022-12-31T04:34:14.173Z,10.63
2022-12-31T04:36:45.364Z,10.54
2022-12-31T04:39:16.190Z,10.54
2022-12-31T04:41:47.219Z,10.49
2022-12-31T04:44:18.635Z,10.50
2022-12-31T04:46:49.408Z,10.50
2022-12-31T04:49:20.886Z,10.49
2022-12-31T04:51:52.767Z,10.47
2022-12-31T04:54:23.769Z,10.40
2022-12-31T04:56:54.565Z,10.46
2022-12-31T04:59:25.544Z,10.44
2022-12-31T05:01:56.704Z,10.50
2022-12-31T05:04:28.107Z,10.48
2022-12-31T05:06:58.989Z,10.55
2022-12-31T05:09:31.150Z,10.62
2022-12-31T05:12:02.003Z,10.59
2022-12-31T05:14:33.003Z,10.62
2022-12-31T05:17:04.112Z,10.60
2022-12-31T05:19:35.849Z,10.49
2022-12-31T05:22:24.562Z,10.48
2022-12-31T05:24:55.433Z,10.44
2022-12-31T05:27:26.385Z,10.55
2022-12-31T05:29:57.379Z,10.34
2022-12-31T05:32:28.255Z,10.44
2022-12-31T05:34:59.874Z,10.36
2022-12-31T05:37:31.927Z,10.46
2022-12-31T05:40:03.012Z,10.38
2022-12-31T05:42:36.469Z,10.56
2022-12-31T05:45:08.137Z,10.55
2022-12-31T05:47:38.813Z,10.54
2022-12-31T05:50:10.226Z,10.48
2022-12-31T05:52:47.159Z,10.35
2022-12-31T05:55:18.455Z,10.56
2022-12-31T05:57:49.261Z,10.46
2022-12-31T06:00:20.667Z,10.56
2022-12-31T06:02:51.649Z,10.56
2022-12-31T06:05:26.115Z,10.60
2022-12-31T06:07:57.421Z,10.62
2022-12-31T06:10:28.993Z,10.60
2022-12-31T06:13:00.577Z,10.60
2022-12-31T06:15:31.643Z,10.59
2022-12-31T06:18:02.612Z,10.63
2022-12-31T06:20:33.663Z,10.65
2022-12-31T06:23:09.172Z,10.53
2022-12-31T06:25:39.925Z,10.45
2022-12-31T06:28:17.957Z,10.49
2022-12-31T06:30:50.900Z,10.60
2022-12-31T06:33:22.109Z,10.47
2022-12-31T06:35:56.154Z,10.45
2022-12-31T06:38:27.027Z,10.43
2022-12-31T06:40:58.502Z,10.56
2022-12-31T06:43:29.264Z,10.52
2022-12-31T06:46:02.679Z,10.60
2022-12-31T06:48:33.492Z,10.65
2022-12-31T06:51:08.603Z,10.72
2022-12-31T06:53:42.959Z,10.57
2022-12-31T06:56:17.955Z,10.66
2022-12-31T06:58:49.738Z,10.62
2022-12-31T07:01:30.639Z,10.62
2022-12-31T07:04:04.861Z,10.67
2022-12-31T07:06:40.396Z,10.70
2022-12-31T07:09:17.023Z,10.75
2022-12-31T07:11:55.536Z,10.67
2022-12-31T07:14:31.558Z,10.55
2022-12-31T07:17:08.046Z,10.67
2022-12-31T07:19:46.191Z,10.63
2022-12-31T07:22:18.303Z,10.62
2022-12-31T07:24:49.656Z,10.55
2022-12-31T07:27:27.564Z,10.68
2022-12-31T07:30:05.000Z,10.75
2022-12-31T07:32:45.173Z,10.83
2022-12-31T07:35:20.096Z,10.73
2022-12-31T07:37:55.189Z,10.80
2022-12-31T07:40:31.296Z,10.87
2022-12-31T07:43:06.738Z,10.92
2022-12-31T07:45:42.191Z,10.91
2022-12-31T07:48:19.764Z,10.78
2022-12-31T07:50:51.264Z,10.82
2022-12-31T07:53:22.898Z,10.86
2022-12-31T07:55:55.856Z,10.97
2022-12-31T07:58:31.803Z,11.08
2022-12-31T08:01:03.183Z,11.07
2022-12-31T08:03:45.273Z,10.98
2022-12-31T08:06:20.018Z,10.95
2022-12-31T08:08:54.744Z,11.07
2022-12-31T08:11:31.790Z,11.06
2022-12-31T08:14:07.416Z,11.09
2022-12-31T08:16:38.863Z,11.10
2022-12-31T08:19:16.068Z,11.16
2022-12-31T08:21:50.179Z,11.10
2022-12-31T08:24:27.203Z,11.05
2022-12-31T08:27:03.228Z,11.08
2022-12-31T08:29:41.323Z,11.03
2022-12-31T08:32:18.126Z,11.08
2022-12-31T08:34:52.878Z,11.10
2022-12-31T08:37:27.756Z,11.09
2022-12-31T08:40:04.732Z,11.18
2022-12-31T08:42:39.270Z,11.30
2022-12-31T08:45:15.486Z,11.37
2022-12-31T08:47:50.171Z,11.41
2022-12-31T08:50:23.395Z,11.30
2022-12-31T08:52:54.841Z,11.41
2022-12-31T08:55:26.724Z,11.50
2022-12-31T08:58:04.213Z,11.58
2022-12-31T09:00:36.316Z,11.59
2022-12-31T09:03:14.339Z,11.72
2022-12-31T09:05:54.178Z,11.77
2022-12-31T09:08:29.859Z,11.76
2022-12-31T09:11:05.354Z,11.74
2022-12-31T09:13:43.240Z,11.83
2022-12-31T09:16:18.639Z,11.80
2022-12-31T09:18:49.550Z,11.85
2022-12-31T09:21:20.639Z,11.91
2022-12-31T09:23:53.645Z,11.98
2022-12-31T09:26:35.044Z,12.00
2022-12-31T09:29:11.576Z,12.00
2022-12-31T09:31:50.080Z,12.04
2022-12-31T09:34:25.129Z,12.10
2022-12-31T09:36:58.862Z,12.17
2022-12-31T09:39:34.239Z,12.13
2022-12-31T09:42:21.674Z,12.12
2022-12-31T09:45:08.467Z,12.21
2022-12-31T09:48:00.455Z,12.24
2022-12-31T09:50:48.726Z,12.32
2022-12-31T09:53:37.220Z,12.39
2022-12-31T09:56:13.077Z,12.42
2022-12-31T09:58:46.806Z,12.46
2022-12-31T10:01:25.805Z,12.63
2022-12-31T10:04:10.042Z,12.63
2022-12-31T10:06:47.824Z,12.60
2022-12-31T10:09:35.623Z,12.73
2022-12-31T10:12:25.012Z,12.64
2022-12-31T10:15:11.407Z,12.73
2022-12-31T10:17:50.111Z,12.75
2022-12-31T10:20:35.919Z,12.75
2022-12-31T10:23:31.858Z,12.81
2022-12-31T10:26:12.082Z,12.95
2022-12-31T10:28:51.198Z,12.94
2022-12-31T10:31:32.597Z,13.01
2022-12-31T10:34:13.847Z,13.06
2022-12-31T10:36:59.545Z,13.14
2022-12-31T10:39:39.923Z,13.30
2022-12-31T10:42:36.118Z,13.39
2022-12-31T10:45:35.494Z,13.57
2022-12-31T10:51:23.689Z,13.71
2022-12-31T10:54:10.643Z,13.89
2022-12-31T10:57:08.956Z,13.95
2022-12-31T11:00:02.355Z,14.11
2022-12-31T11:02:58.364Z,14.19
2022-12-31T11:05:42.821Z,14.23
2022-12-31T11:08:20.955Z,14.32
2022-12-31T11:11:01.685Z,14.36
2022-12-31T11:13:48.058Z,14.47
2022-12-31T11:16:25.176Z,14.38
2022-12-31T11:19:00.231Z,14.39
2022-12-31T11:21:41.457Z,14.32
2022-12-31T11:24:19.864Z,14.33
2022-12-31T11:26:59.195Z,14.48
2022-12-31T11:29:39.762Z,14.64
2022-12-31T11:32:20.388Z,14.64
2022-12-31T11:35:19.894Z,14.70
2022-12-31T11:37:51.709Z,14.79
2022-12-31T11:40:38.272Z,14.87
2022-12-31T11:43:19.929Z,14.83
2022-12-31T11:46:00.478Z,14.81
2022-12-31T11:48:35.555Z,14.80
2022-12-31T11:51:12.113Z,14.80
2022-12-31T11:53:51.604Z,14.81
2022-12-31T11:56:26.168Z,14.70
2022-12-31T11:58:57.643Z,14.70
2022-12-31T12:01:32.388Z,14.70
2022-12-31T12:04:06.683Z,14.71
2022-12-31T12:06:42.905Z,14.77
2022-12-31T12:09:16.780Z,14.80
2022-12-31T12:11:59.095Z,14.81
2022-12-31T12:14:33.452Z,14.92
2022-12-31T12:17:05.867Z,14.90
2022-12-31T12:19:37.433Z,15.12
2022-12-31T12:22:15.249Z,15.28
2022-12-31T12:24:54.483Z,15.42
2022-12-31T12:27:31.292Z,15.50
2022-12-31T12:30:10.346Z,15.56
2022-12-31T12:32:42.057Z,15.54
2022-12-31T12:35:21.140Z,15.63
2022-12-31T12:38:04.075Z,15.67
2022-12-31T12:40:35.907Z,15.65
2022-12-31T12:43:07.553Z,15.65
2022-12-31T12:45:45.168Z,15.55
2022-12-31T12:48:21.400Z,15.53
2022-12-31T12:50:53.721Z,15.54
2022-12-31T12:53:38.892Z,15.50
2022-12-31T12:56:18.885Z,15.49
2022-12-31T12:58:55.789Z,15.51
2022-12-31T13:01:29.738Z,15.48
2022-12-31T13:04:34.131Z,15.53
2022-12-31T13:07:16.277Z,15.54
2022-12-31T13:09:58.818Z,15.61
2022-12-31T13:12:56.839Z,15.58
2022-12-31T13:15:33.616Z,15.58
2022-12-31T13:18:13.796Z,15.60
2022-12-31T13:20:48.646Z,15.53
2022-12-31T13:23:24.629Z,15.54
2022-12-31T13:26:00.026Z,15.54
2022-12-31T13:28:33.695Z,15.57
2022-12-31T13:31:07.355Z,15.61
2022-12-31T13:33:41.071Z,15.64
2022-12-31T13:36:15.346Z,15.53
2022-12-31T13:38:48.179Z,15.61
2022-12-31T13:41:22.434Z,15.52
2022-12-31T13:43:58.177Z,15.56
2022-12-31T13:46:34.296Z,15.58
2022-12-31T13:49:15.934Z,15.62
2022-12-31T13:51:54.564Z,15.60
2022-12-31T13:54:32.359Z,15.58
2022-12-31T13:57:05.653Z,15.53
2022-12-31T13:59:38.943Z,15.51
2022-12-31T14:02:24.763Z,15.44
2022-12-31T14:05:02.285Z,15.48
2022-12-31T14:07:45.331Z,15.43
2022-12-31T14:10:18.427Z,15.43
2022-12-31T14:12:53.489Z,15.41
2022-12-31T14:15:28.041Z,15.39
2022-12-31T14:18:05.026Z,15.46
2022-12-31T14:20:43.607Z,15.42
2022-12-31T14:23:19.536Z,15.43
2022-12-31T14:25:54.622Z,15.49
2022-12-31T14:28:34.355Z,15.49
2022-12-31T14:31:16.107Z,15.47
2022-12-31T14:33:52.155Z,15.45
2022-12-31T14:36:28.865Z,15.47
2022-12-31T14:39:05.878Z,15.49
2022-12-31T14:41:44.917Z,15.45
2022-12-31T14:44:25.745Z,15.49
2022-12-31T14:47:04.847Z,15.59
2022-12-31T14:50:10.896Z,15.59
2022-12-31T14:53:11.882Z,15.63
2022-12-31T14:56:30.692Z,15.60
2022-12-31T14:59:26.753Z,15.61
2022-12-31T15:02:05.513Z,15.58
2022-12-31T15:04:46.219Z,15.61
2022-12-31T15:07:28.076Z,15.62
2022-12-31T15:10:11.740Z,15.60
2022-12-31T15:12:58.694Z,15.58
2022-12-31T15:15:50.870Z,15.48
2022-12-31T15:18:57.012Z,15.48
2022-12-31T15:24:50.648Z,15.51
2022-12-31T15:27:31.555Z,15.51
2022-12-31T15:30:04.191Z,15.51
2022-12-31T15:32:40.814Z,15.52
2022-12-31T15:38:31.210Z,15.53
2022-12-31T15:41:13.497Z,15.39
2022-12-31T15:43:48.471Z,15.44
2022-12-31T15:46:21.431Z,15.46
2022-12-31T15:49:04.233Z,15.35
2022-12-31T15:51:43.514Z,15.48
2022-12-31T15:54:23.149Z,15.50
2022-12-31T15:56:56.073Z,15.49
2022-12-31T15:59:29.066Z,15.49
2022-12-31T16:02:04.128Z,15.50
2022-12-31T16:04:44.781Z,15.49
2022-12-31T16:07:19.078Z,15.38
2022-12-31T16:09:53.617Z,15.44
2022-12-31T16:12:32.696Z,15.48
2022-12-31T16:15:06.446Z,15.48
2022-12-31T16:17:39.902Z,15.48
2022-12-31T16:20:26.973Z,15.45
2022-12-31T16:23:00.431Z,15.40
2022-12-31T16:25:33.510Z,15.41
2022-12-31T16:28:06.069Z,15.41
2022-12-31T16:30:38.824Z,15.31
2022-12-31T16:33:14.955Z,15.26
2022-12-31T16:35:56.467Z,15.26
2022-12-31T16:38:33.651Z,15.32
2022-12-31T16:41:19.833Z,15.33
2022-12-31T16:43:53.081Z,15.32
2022-12-31T16:46:28.001Z,15.31
2022-12-31T16:49:03.772Z,15.29
2022-12-31T16:51:38.972Z,15.28
2022-12-31T16:54:19.441Z,15.21
2022-12-31T16:56:53.506Z,15.31
2022-12-31T16:59:52.791Z,15.21
2022-12-31T17:02:33.506Z,15.21
2022-12-31T17:05:20.395Z,15.24
2022-12-31T17:07:51.866Z,15.25
2022-12-31T17:10:46.981Z,15.21
2022-12-31T17:13:27.752Z,15.20
2022-12-31T17:16:00.689Z,15.22
2022-12-31T17:18:36.980Z,15.24
2022-12-31T17:21:14.600Z,15.23
2022-12-31T17:23:54.814Z,15.26
2022-12-31T17:26:27.993Z,15.23
2022-12-31T17:29:02.373Z,15.13
2022-12-31T17:31:39.936Z,15.06
2022-12-31T17:34:25.727Z,15.18
2022-12-31T17:37:18.741Z,15.19
2022-12-31T17:39:51.482Z,15.16
2022-12-31T17:42:31.617Z,15.19
2022-12-31T17:45:04.269Z,15.18
2022-12-31T17:47:40.169Z,15.15
2022-12-31T17:50:26.176Z,15.10
2022-12-31T17:53:01.049Z,15.12
2022-12-31T17:55:32.413Z,15.11
2022-12-31T17:58:05.129Z,15.12
2022-12-31T18:00:38.265Z,15.05
2022-12-31T18:03:10.245Z,15.06
2022-12-31T18:05:41.901Z,15.02
2022-12-31T18:08:13.348Z,15.04
2022-12-31T18:10:45.532Z,14.99
2022-12-31T18:13:18.878Z,14.92
2022-12-31T18:15:49.842Z,14.88
2022-12-31T18:18:25.467Z,14.88
2022-12-31T18:21:00.174Z,14.92
2022-12-31T18:23:32.473Z,14.97
2022-12-31T18:26:05.153Z,14.97
2022-12-31T18:28:36.905Z,14.96
2022-12-31T18:31:09.754Z,14.97
2022-12-31T18:33:43.414Z,14.95
2022-12-31T18:36:15.310Z,14.94
2022-12-31T18:38:46.622Z,14.91
2022-12-31T18:41:20.508Z,14.99
2022-12-31T18:43:52.235Z,15.09
2022-12-31T18:46:24.640Z,15.12
2022-12-31T18:48:55.902Z,15.10
2022-12-31T18:51:32.109Z,15.07
2022-12-31T18:54:06.994Z,15.04
2022-12-31T18:56:41.843Z,15.07
2022-12-31T18:59:16.345Z,15.12
2022-12-31T19:01:48.570Z,15.12
2022-12-31T19:04:27.560Z,15.14
2022-12-31T19:07:01.022Z,15.19
2022-12-31T19:09:51.414Z,15.21
2022-12-31T19:12:24.887Z,15.27
2022-12-31T19:14:56.592Z,15.23
2022-12-31T19:17:28.238Z,15.19
2022-12-31T19:20:05.062Z,15.19
2022-12-31T19:22:37.653Z,15.21
2022-12-31T19:25:16.632Z,15.19
2022-12-31T19:27:49.140Z,15.19
2022-12-31T19:30:25.319Z,15.15
2022-12-31T19:32:57.828Z,15.12
2022-12-31T19:35:30.335Z,15.13
2022-12-31T19:38:02.680Z,15.14
2022-12-31T19:40:34.720Z,15.12
2022-12-31T19:43:05.856Z,15.07
2022-12-31T19:45:37.678Z,14.99
2022-12-31T19:48:12.024Z,15.05
2022-12-31T19:50:44.776Z,15.08
2022-12-31T19:53:17.294Z,14.98
2022-12-31T19:55:49.239Z,15.13
2022-12-31T19:58:22.190Z,15.08
2022-12-31T20:00:58.182Z,15.10
2022-12-31T20:03:34.903Z,15.14
2022-12-31T20:06:07.616Z,15.15
2022-12-31T20:08:39.995Z,15.15
2022-12-31T20:11:11.896Z,15.08
2022-12-31T20:13:44.489Z,15.12
2022-12-31T20:16:18.442Z,15.13
2022-12-31T20:18:52.526Z,15.19
2022-12-31T20:21:26.281Z,15.15
2022-12-31T20:24:00.098Z,15.19
2022-12-31T20:26:32.646Z,15.10
2022-12-31T20:29:03.972Z,15.27
2022-12-31T20:31:35.036Z,15.22
2022-12-31T20:34:07.240Z,15.24
2022-12-31T20:36:38.748Z,15.24
2022-12-31T20:39:10.512Z,15.24
2022-12-31T20:41:41.728Z,15.22
2022-12-31T20:44:14.190Z,15.26
2022-12-31T20:46:45.527Z,15.25
2022-12-31T20:49:31.151Z,15.26
2022-12-31T20:52:13.603Z,15.20
2022-12-31T20:54:45.140Z,15.17
2022-12-31T20:57:17.092Z,15.19
2022-12-31T20:59:49.895Z,15.14
2022-12-31T21:02:29.503Z,15.20
2022-12-31T21:05:12.230Z,15.22
2022-12-31T21:07:44.056Z,15.28
2022-12-31T21:10:15.273Z,15.30
2022-12-31T21:12:53.470Z,15.32
2022-12-31T21:15:26.904Z,15.33
2022-12-31T21:18:00.583Z,15.32
2022-12-31T21:20:33.571Z,15.27
2022-12-31T21:23:04.562Z,15.25
2022-12-31T21:25:36.951Z,15.23
2022-12-31T21:28:08.591Z,15.18
2022-12-31T21:30:41.669Z,15.12
2022-12-31T21:33:14.387Z,15.14
2022-12-31T21:35:53.254Z,15.14
2022-12-31T21:38:24.945Z,15.08
2022-12-31T21:40:56.648Z,15.17
2022-12-31T21:43:27.601Z,15.21
2022-12-31T21:46:11.958Z,15.18
2022-12-31T21:48:43.930Z,15.20
2022-12-31T21:51:16.972Z,15.12
2022-12-31T21:53:48.789Z,15.15
2022-12-31T21:56:22.230Z,15.14
2022-12-31T21:59:14.020Z,15.12
2022-12-31T22:02:03.275Z,15.11
2022-12-31T22:07:25.772Z,15.17
2022-12-31T22:09:57.572Z,15.18
2022-12-31T22:12:28.585Z,15.16
2022-12-31T22:15:15.624Z,15.09
2022-12-31T22:17:48.736Z,15.09
2022-12-31T22:20:29.355Z,15.15
2022-12-31T22:23:01.929Z,15.18
2022-12-31T22:25:34.653Z,15.19
2022-12-31T22:30:59.545Z,15.17
2022-12-31T22:33:33.658Z,15.20
2022-12-31T22:36:06.634Z,15.27
2022-12-31T22:38:38.411Z,15.32
2022-12-31T22:41:10.940Z,15.14
2022-12-31T22:43:43.197Z,15.30
2022-12-31T22:46:15.373Z,15.32
2022-12-31T22:48:47.015Z,15.37
2022-12-31T22:51:19.124Z,15.38
2022-12-31T22:53:51.225Z,15.35
2022-12-31T22:56:23.303Z,15.35
2022-12-31T22:58:54.512Z,15.42
2022-12-31T23:01:26.891Z,15.33
2022-12-31T23:03:59.906Z,15.41
2022-12-31T23:06:33.267Z,15.42
2022-12-31T23:09:22.683Z,15.33
2022-12-31T23:11:54.084Z,15.44
2022-12-31T23:14:42.969Z,15.48
2022-12-31T23:17:34.573Z,15.53
2022-12-31T23:20:26.454Z,15.44
2022-12-31T23:23:13.526Z,15.44
2022-12-31T23:25:45.290Z,15.38
2022-12-31T23:28:18.236Z,15.46
2022-12-31T23:30:51.665Z,15.46
2022-12-31T23:33:27.149Z,15.48
2022-12-31T23:36:08.691Z,15.50
2022-12-31T23:38:40.864Z,15.50
2022-12-31T23:41:16.496Z,15.57
2022-12-31T23:43:48.640Z,15.53
2022-12-31T23:46:32.026Z,15.43
2022-12-31T23:49:04.322Z,15.41
2022-12-31T23:51:37.701Z,15.42
2022-12-31T23:54:13.527Z,15.32
2022-12-31T23:56:46.000Z,15.32
2022-12-31T23:59:19.251Z,15.33
